Skip Navigation Links
NOAA logo - Click to go to the NOAA homepage
NOAA's National Weather Service
Alaska Aviation Weather Unit
  NWS logo - Click to go to the NWS homepage
Left Navbar Graphic     19 AKDT = 03 GMT

   
NOAA is celebrating 200 years of science, service, and stewardship. Visit the NOAA 200th celebration Web site to learn more.
USA.gov is the U.S. Government's official Web portal to all Federal, state and local government Web resources and services.
Facebook
NWS on Facebook

Important Change Regarding the AAWU Web Presence

 

Over the last several months, the AAWU has been working to navigate its webpages to a nationally supported server. Security, as well as other needs, have necessitated the change.  We have been given an extension for the site changeover while we diligently work at addressing feedback received. As of July 14, 2017, aawu.arh.noaa.gov will be discontinued. The new AAWU web address is weather.gov/aawu. It is now live and will run in-parallel with the old site until it is discontinued on July 14, 2017. Please continue to send any feedback or questions regarding the new webpages to nws.ar.aawu.webauthors@noaa.gov.  Thank you for your patience during this time of transition.
AAWU Home :: Display TAF Add Bookmark
SPECI PATE 282107Z AUTO 17016G19KT 10SM SCT017 BKN022 OVC040 12/10 A2961
     RMK AO2 WSHFT 2047 $=

SPECI PATE 282120Z AUTO 19018KT 10SM FEW019 SCT029 BKN050 11/09
 A2961 RMK AO2 WSHFT 2047 $=

SPECI PATE 282142Z AUTO 20020KT 10SM FEW008 BKN042 BKN050 11/09
 A2962 RMK AO2 WSHFT 2047 $=

METAR PATE 282156Z AUTO 19015KT 10SM FEW008 BKN040 OVC050 11/09 A2963
     RMK AO2 WSHFT 2047 SLP037 T01060089 $=

METAR PATE 282256Z AUTO 20012KT 10SM FEW014 OVC042 11/09 A2964 RMK AO2
     SLP042 T01110089 $=

SPECI PATE 282321Z AUTO 20014KT 6SM BR FEW005 SCT012 OVC042 10/09 A2964
     RMK AO2 $=

METAR PATE 282356Z AUTO 19016KT 10SM BKN038 BKN047 OVC060 11/08
 A2965 RMK AO2 SLP044 60003 T01060078 10122 20100 51013 $=

METAR PATE 290056Z AUTO 19017KT 10SM SCT035 BKN047 OVC055 11/07 A2966
     RMK AO2 SLP047 T01060072 $=

METAR PATE 290156Z AUTO 15016KT 10SM BKN036 BKN044 13/07 A2966 RMK AO2
     SLP046 T01330072 $=

METAR PATE 290256Z AUTO 17017KT 10SM OVC037 12/06 A2966 RMK AO2 SLP049
     T01220061 51005 $=


NOAA's National Weather Service
Alaska Aviation Weather Unit
6930 Sand Lake Road
Anchorage, AK 99502-1845
Disclaimer
Credits
Glossary
Privacy Policy
About Us
Career Opportunities
Contact AAWU Internet Services Site last modified: April, 17th 2012